This is the latest recevied weather packets stored in our database for station/object EA3IK-1. If no packets are shown the sender has not sent any weather packets the latest 10 day(s).
| Time | Temp. | Humidity | Pressure | Rain* | Wind** | Luminosity | Snow |
|---|---|---|---|---|---|---|---|
| 1777605026 | 14.44° C | 47% | 1019.7 hPa | 0 mm | - | - | - |
| 1777604125 | 15° C | 46% | 1019.7 hPa | 0 mm | - | - | - |
| 1777603224 | 15° C | 45% | 1019.6 hPa | 0 mm | - | - | - |
| 1777602324 | 15° C | 45% | 1019.7 hPa | 0 mm | - | - | - |
| 1777601423 | 15.56° C | 43% | 1019.7 hPa | 0 mm | - | - | - |
| 1777587009 | 16.67° C | 40% | 1018.7 hPa | 0 mm | - | - | - |
| 1777586108 | 16.11° C | 41% | 1018.7 hPa | 0 mm | - | - | - |
| 1777583406 | 16.67° C | 43% | 1018.4 hPa | 0 mm | - | - | - |
| 1777581604 | 16.67° C | 46% | 1018.1 hPa | 0 mm | - | - | - |
| 1777580703 | 17.22° C | 47% | 1017.9 hPa | 0 mm | - | - | - |
| 1777577100 | 18.33° C | 61% | 1016.9 hPa | 0 mm | - | - | - |
| 1777570794 | 20.56° C | 64% | 1015.6 hPa | 0 mm | - | - | - |
| 1777569893 | 21.11° C | 64% | 1015.7 hPa | 0 mm | - | - | - |
| 1777568091 | 21.11° C | 65% | 1015.6 hPa | 0 mm | - | - | - |
| 1777564488 | 21.67° C | 66% | 1015.5 hPa | 0 mm | - | - | - |
| 1777563587 | 22.22° C | 66% | 1015.5 hPa | 0 mm | - | - | - |
| 1777558182 | 23.89° C | 60% | 1015.4 hPa | 0 mm | - | - | - |
| 1777557281 | 23.33° C | 61% | 1015.5 hPa | 0 mm | - | - | - |
| 1777555479 | 23.89° C | 64% | 1015.5 hPa | 0 mm | - | - | - |
| 1777554578 | 23.33° C | 64% | 1015.7 hPa | 0 mm | - | - | - |
| 1777552777 | 22.78° C | 62% | 1015.8 hPa | 0 mm | - | - | - |
| 1777551876 | 22.78° C | 61% | 1015.8 hPa | 0 mm | - | - | - |
| 1777550975 | 22.78° C | 61% | 1015.9 hPa | 0 mm | - | - | - |
| 1777550074 | 22.22° C | 63% | 1016 hPa | 0 mm | - | - | - |
| 1777548272 | 22.22° C | 65% | 1016.2 hPa | 0 mm | - | - | - |
* Rain latest hour (hover to see other rain measurements)
** Current wind speed in m/s (hover to see current wind gust speed)